sensor_id;sensor_type;location;lat;lon;timestamp;P1;durP1;ratioP1;P2;durP2;ratioP2
32613;SDS011;19031;51.400;6.770;2024-03-02T00:00:43;2.38;;;1.05;;
32613;SDS011;19031;51.400;6.770;2024-03-02T00:03:08;1.67;;;0.90;;
32613;SDS011;19031;51.400;6.770;2024-03-02T00:05:34;1.88;;;1.08;;
32613;SDS011;19031;51.400;6.770;2024-03-02T00:08:00;2.20;;;1.17;;
32613;SDS011;19031;51.400;6.770;2024-03-02T00:10:27;1.80;;;1.10;;
32613;SDS011;19031;51.400;6.770;2024-03-02T00:13:01;1.63;;;1.02;;
32613;SDS011;19031;51.400;6.770;2024-03-02T00:18:13;2.10;;;1.30;;
32613;SDS011;19031;51.400;6.770;2024-03-02T00:20:43;2.17;;;0.90;;
32613;SDS011;19031;51.400;6.770;2024-03-02T00:23:09;2.30;;;1.25;;
32613;SDS011;19031;51.400;6.770;2024-03-02T00:25:43;5.22;;;0.93;;
32613;SDS011;19031;51.400;6.770;2024-03-02T00:28:32;4.20;;;1.20;;
32613;SDS011;19031;51.400;6.770;2024-03-02T00:33:50;2.63;;;1.55;;
32613;SDS011;19031;51.400;6.770;2024-03-02T00:36:17;2.50;;;1.10;;
32613;SDS011;19031;51.400;6.770;2024-03-02T00:38:50;1.80;;;1.08;;
32613;SDS011;19031;51.400;6.770;2024-03-02T00:41:27;2.20;;;1.25;;
32613;SDS011;19031;51.400;6.770;2024-03-02T00:43:57;2.35;;;1.10;;
32613;SDS011;19031;51.400;6.770;2024-03-02T00:46:30;4.03;;;1.20;;
32613;SDS011;19031;51.400;6.770;2024-03-02T00:49:26;5.25;;;1.60;;
32613;SDS011;19031;51.400;6.770;2024-03-02T00:51:52;2.10;;;1.00;;
32613;SDS011;19031;51.400;6.770;2024-03-02T00:54:19;1.90;;;1.02;;
32613;SDS011;19031;51.400;6.770;2024-03-02T00:56:46;3.65;;;1.13;;
32613;SDS011;19031;51.400;6.770;2024-03-02T00:59:12;1.90;;;0.95;;
32613;SDS011;19031;51.400;6.770;2024-03-02T01:01:38;3.50;;;1.00;;
32613;SDS011;19031;51.400;6.770;2024-03-02T01:04:03;3.33;;;1.25;;
32613;SDS011;19031;51.400;6.770;2024-03-02T01:06:30;1.90;;;1.05;;
32613;SDS011;19031;51.400;6.770;2024-03-02T01:08:56;1.83;;;1.00;;
32613;SDS011;19031;51.400;6.770;2024-03-02T01:11:21;3.55;;;1.17;;
32613;SDS011;19031;51.400;6.770;2024-03-02T01:13:47;2.78;;;1.30;;
32613;SDS011;19031;51.400;6.770;2024-03-02T01:16:13;2.85;;;0.98;;
32613;SDS011;19031;51.400;6.770;2024-03-02T01:18:40;2.35;;;0.82;;
32613;SDS011;19031;51.400;6.770;2024-03-02T01:21:06;3.83;;;1.00;;
32613;SDS011;19031;51.400;6.770;2024-03-02T01:23:31;3.30;;;1.00;;
32613;SDS011;19031;51.400;6.770;2024-03-02T01:25:57;3.55;;;1.13;;
32613;SDS011;19031;51.400;6.770;2024-03-02T01:28:22;2.25;;;0.68;;
32613;SDS011;19031;51.400;6.770;2024-03-02T01:30:48;3.20;;;1.10;;
32613;SDS011;19031;51.400;6.770;2024-03-02T01:33:14;5.00;;;1.20;;
32613;SDS011;19031;51.400;6.770;2024-03-02T01:35:40;2.58;;;1.20;;
32613;SDS011;19031;51.400;6.770;2024-03-02T01:38:06;3.05;;;0.98;;
32613;SDS011;19031;51.400;6.770;2024-03-02T01:40:32;2.33;;;1.20;;
32613;SDS011;19031;51.400;6.770;2024-03-02T01:43:01;3.67;;;1.15;;
32613;SDS011;19031;51.400;6.770;2024-03-02T01:45:27;4.15;;;1.30;;
32613;SDS011;19031;51.400;6.770;2024-03-02T01:47:53;3.20;;;1.00;;
32613;SDS011;19031;51.400;6.770;2024-03-02T01:50:26;3.20;;;0.88;;
32613;SDS011;19031;51.400;6.770;2024-03-02T01:55:19;2.40;;;0.88;;
32613;SDS011;19031;51.400;6.770;2024-03-02T01:57:44;4.03;;;1.50;;
32613;SDS011;19031;51.400;6.770;2024-03-02T02:00:10;5.65;;;1.00;;
32613;SDS011;19031;51.400;6.770;2024-03-02T02:02:37;3.13;;;1.00;;
32613;SDS011;19031;51.400;6.770;2024-03-02T02:05:02;1.55;;;0.60;;
32613;SDS011;19031;51.400;6.770;2024-03-02T02:07:29;1.90;;;0.80;;
32613;SDS011;19031;51.400;6.770;2024-03-02T02:09:54;3.35;;;1.00;;
32613;SDS011;19031;51.400;6.770;2024-03-02T02:12:20;5.93;;;1.40;;
32613;SDS011;19031;51.400;6.770;2024-03-02T02:14:49;4.03;;;1.08;;
32613;SDS011;19031;51.400;6.770;2024-03-02T02:17:15;2.45;;;1.00;;
32613;SDS011;19031;51.400;6.770;2024-03-02T02:19:41;2.35;;;0.95;;
32613;SDS011;19031;51.400;6.770;2024-03-02T02:22:07;1.48;;;0.85;;
32613;SDS011;19031;51.400;6.770;2024-03-02T02:24:33;1.90;;;0.80;;
32613;SDS011;19031;51.400;6.770;2024-03-02T02:26:59;2.58;;;0.90;;
32613;SDS011;19031;51.400;6.770;2024-03-02T02:29:24;3.53;;;0.82;;
32613;SDS011;19031;51.400;6.770;2024-03-02T02:31:50;1.85;;;1.10;;
32613;SDS011;19031;51.400;6.770;2024-03-02T02:34:15;2.97;;;1.13;;
32613;SDS011;19031;51.400;6.770;2024-03-02T02:36:41;1.70;;;0.80;;
32613;SDS011;19031;51.400;6.770;2024-03-02T02:39:09;1.80;;;0.95;;
32613;SDS011;19031;51.400;6.770;2024-03-02T02:41:38;2.70;;;0.75;;
32613;SDS011;19031;51.400;6.770;2024-03-02T02:44:04;2.65;;;1.08;;
32613;SDS011;19031;51.400;6.770;2024-03-02T02:46:30;5.63;;;1.05;;
32613;SDS011;19031;51.400;6.770;2024-03-02T02:48:55;2.70;;;0.93;;
32613;SDS011;19031;51.400;6.770;2024-03-02T02:51:21;2.05;;;0.93;;
32613;SDS011;19031;51.400;6.770;2024-03-02T02:53:46;3.95;;;1.27;;
32613;SDS011;19031;51.400;6.770;2024-03-02T02:56:12;1.65;;;0.93;;
32613;SDS011;19031;51.400;6.770;2024-03-02T02:58:39;2.83;;;0.77;;
32613;SDS011;19031;51.400;6.770;2024-03-02T03:01:05;1.85;;;0.90;;
32613;SDS011;19031;51.400;6.770;2024-03-02T03:03:31;3.67;;;1.05;;
32613;SDS011;19031;51.400;6.770;2024-03-02T03:05:57;2.95;;;0.80;;
32613;SDS011;19031;51.400;6.770;2024-03-02T03:08:22;2.17;;;0.90;;
32613;SDS011;19031;51.400;6.770;2024-03-02T03:10:48;3.30;;;0.90;;
32613;SDS011;19031;51.400;6.770;2024-03-02T03:13:14;2.08;;;0.90;;
32613;SDS011;19031;51.400;6.770;2024-03-02T03:15:40;2.75;;;0.93;;
32613;SDS011;19031;51.400;6.770;2024-03-02T03:18:05;1.75;;;0.95;;
32613;SDS011;19031;51.400;6.770;2024-03-02T03:20:32;2.88;;;1.10;;
32613;SDS011;19031;51.400;6.770;2024-03-02T03:22:59;3.03;;;0.82;;
32613;SDS011;19031;51.400;6.770;2024-03-02T03:25:25;0.88;;;0.70;;
32613;SDS011;19031;51.400;6.770;2024-03-02T03:27:50;3.25;;;1.00;;
32613;SDS011;19031;51.400;6.770;2024-03-02T03:30:19;1.73;;;0.98;;
32613;SDS011;19031;51.400;6.770;2024-03-02T03:32:45;1.90;;;0.90;;
32613;SDS011;19031;51.400;6.770;2024-03-02T03:35:10;7.25;;;1.00;;
32613;SDS011;19031;51.400;6.770;2024-03-02T03:37:37;2.13;;;1.05;;
32613;SDS011;19031;51.400;6.770;2024-03-02T03:40:04;2.30;;;0.85;;
32613;SDS011;19031;51.400;6.770;2024-03-02T03:42:34;3.05;;;1.00;;
32613;SDS011;19031;51.400;6.770;2024-03-02T03:45:00;1.83;;;0.80;;
32613;SDS011;19031;51.400;6.770;2024-03-02T03:47:26;2.17;;;0.90;;
32613;SDS011;19031;51.400;6.770;2024-03-02T03:49:52;2.85;;;1.20;;
32613;SDS011;19031;51.400;6.770;2024-03-02T03:52:17;2.83;;;1.00;;
32613;SDS011;19031;51.400;6.770;2024-03-02T03:54:43;2.13;;;1.05;;
32613;SDS011;19031;51.400;6.770;2024-03-02T03:57:09;6.80;;;1.13;;
32613;SDS011;19031;51.400;6.770;2024-03-02T03:59:35;2.80;;;1.27;;
32613;SDS011;19031;51.400;6.770;2024-03-02T04:02:02;3.70;;;1.67;;
32613;SDS011;19031;51.400;6.770;2024-03-02T04:04:28;3.58;;;1.10;;
32613;SDS011;19031;51.400;6.770;2024-03-02T04:06:53;3.05;;;1.20;;
32613;SDS011;19031;51.400;6.770;2024-03-02T04:09:19;2.67;;;0.93;;
32613;SDS011;19031;51.400;6.770;2024-03-02T04:11:45;3.22;;;1.05;;
32613;SDS011;19031;51.400;6.770;2024-03-02T04:14:11;2.95;;;1.27;;
32613;SDS011;19031;51.400;6.770;2024-03-02T04:16:37;3.47;;;1.33;;
32613;SDS011;19031;51.400;6.770;2024-03-02T04:19:03;2.58;;;1.15;;
32613;SDS011;19031;51.400;6.770;2024-03-02T04:21:29;2.58;;;1.27;;
32613;SDS011;19031;51.400;6.770;2024-03-02T04:23:54;3.03;;;1.33;;
32613;SDS011;19031;51.400;6.770;2024-03-02T04:26:23;3.38;;;1.17;;
32613;SDS011;19031;51.400;6.770;2024-03-02T04:28:50;2.50;;;1.13;;
32613;SDS011;19031;51.400;6.770;2024-03-02T04:31:16;2.13;;;1.13;;
32613;SDS011;19031;51.400;6.770;2024-03-02T04:33:41;2.35;;;1.15;;
32613;SDS011;19031;51.400;6.770;2024-03-02T04:36:07;5.50;;;1.60;;
32613;SDS011;19031;51.400;6.770;2024-03-02T04:38:36;5.32;;;1.63;;
32613;SDS011;19031;51.400;6.770;2024-03-02T04:41:02;2.60;;;1.20;;
32613;SDS011;19031;51.400;6.770;2024-03-02T04:43:29;2.15;;;1.17;;
32613;SDS011;19031;51.400;6.770;2024-03-02T04:45:54;4.22;;;1.50;;
32613;SDS011;19031;51.400;6.770;2024-03-02T04:48:20;5.00;;;1.30;;
32613;SDS011;19031;51.400;6.770;2024-03-02T04:50:47;4.78;;;1.52;;
32613;SDS011;19031;51.400;6.770;2024-03-02T04:53:12;5.47;;;1.70;;
32613;SDS011;19031;51.400;6.770;2024-03-02T04:55:38;2.50;;;1.25;;
32613;SDS011;19031;51.400;6.770;2024-03-02T04:58:04;2.35;;;1.10;;
32613;SDS011;19031;51.400;6.770;2024-03-02T05:00:30;1.92;;;1.10;;
32613;SDS011;19031;51.400;6.770;2024-03-02T05:02:55;5.85;;;1.35;;
32613;SDS011;19031;51.400;6.770;2024-03-02T05:05:21;5.07;;;1.15;;
32613;SDS011;19031;51.400;6.770;2024-03-02T05:07:46;2.25;;;1.13;;
32613;SDS011;19031;51.400;6.770;2024-03-02T05:10:12;2.40;;;0.93;;
32613;SDS011;19031;51.400;6.770;2024-03-02T05:12:38;5.43;;;1.30;;
32613;SDS011;19031;51.400;6.770;2024-03-02T05:15:07;7.60;;;1.33;;
32613;SDS011;19031;51.400;6.770;2024-03-02T05:17:35;3.28;;;0.98;;
32613;SDS011;19031;51.400;6.770;2024-03-02T05:20:01;3.22;;;1.13;;
32613;SDS011;19031;51.400;6.770;2024-03-02T05:22:27;2.50;;;0.98;;
32613;SDS011;19031;51.400;6.770;2024-03-02T05:24:53;2.13;;;1.02;;
32613;SDS011;19031;51.400;6.770;2024-03-02T05:27:19;4.32;;;1.33;;
32613;SDS011;19031;51.400;6.770;2024-03-02T05:29:44;1.98;;;1.08;;
32613;SDS011;19031;51.400;6.770;2024-03-02T05:32:10;3.58;;;1.10;;
32613;SDS011;19031;51.400;6.770;2024-03-02T05:34:35;2.90;;;1.05;;
32613;SDS011;19031;51.400;6.770;2024-03-02T05:37:01;3.47;;;1.17;;
32613;SDS011;19031;51.400;6.770;2024-03-02T05:39:27;2.55;;;0.80;;
32613;SDS011;19031;51.400;6.770;2024-03-02T05:41:52;2.33;;;1.15;;
32613;SDS011;19031;51.400;6.770;2024-03-02T05:44:18;2.30;;;1.30;;
32613;SDS011;19031;51.400;6.770;2024-03-02T05:46:44;3.67;;;1.02;;
32613;SDS011;19031;51.400;6.770;2024-03-02T05:49:10;4.22;;;1.45;;
32613;SDS011;19031;51.400;6.770;2024-03-02T05:51:36;5.13;;;1.33;;
32613;SDS011;19031;51.400;6.770;2024-03-02T05:54:01;4.25;;;1.30;;
32613;SDS011;19031;51.400;6.770;2024-03-02T05:56:27;5.28;;;1.45;;
32613;SDS011;19031;51.400;6.770;2024-03-02T05:58:53;4.47;;;1.20;;
32613;SDS011;19031;51.400;6.770;2024-03-02T06:01:41;2.55;;;1.20;;
32613;SDS011;19031;51.400;6.770;2024-03-02T06:04:08;4.32;;;1.27;;
32613;SDS011;19031;51.400;6.770;2024-03-02T06:06:37;3.78;;;1.15;;
32613;SDS011;19031;51.400;6.770;2024-03-02T06:09:03;3.28;;;1.08;;
32613;SDS011;19031;51.400;6.770;2024-03-02T06:11:49;3.78;;;1.27;;
32613;SDS011;19031;51.400;6.770;2024-03-02T06:14:15;7.40;;;1.60;;
32613;SDS011;19031;51.400;6.770;2024-03-02T06:16:40;6.22;;;1.50;;
32613;SDS011;19031;51.400;6.770;2024-03-02T06:19:06;4.93;;;1.30;;
32613;SDS011;19031;51.400;6.770;2024-03-02T06:21:32;3.25;;;1.10;;
32613;SDS011;19031;51.400;6.770;2024-03-02T06:23:58;3.60;;;1.10;;
32613;SDS011;19031;51.400;6.770;2024-03-02T06:26:24;2.63;;;1.13;;
32613;SDS011;19031;51.400;6.770;2024-03-02T06:28:49;2.75;;;1.27;;
32613;SDS011;19031;51.400;6.770;2024-03-02T06:31:15;3.33;;;1.17;;
32613;SDS011;19031;51.400;6.770;2024-03-02T06:33:41;4.55;;;1.48;;
32613;SDS011;19031;51.400;6.770;2024-03-02T06:36:06;2.42;;;1.00;;
32613;SDS011;19031;51.400;6.770;2024-03-02T06:38:36;2.95;;;1.05;;
32613;SDS011;19031;51.400;6.770;2024-03-02T06:41:02;5.25;;;1.42;;
32613;SDS011;19031;51.400;6.770;2024-03-02T06:43:28;3.00;;;1.40;;
32613;SDS011;19031;51.400;6.770;2024-03-02T06:45:53;1.73;;;1.17;;
32613;SDS011;19031;51.400;6.770;2024-03-02T06:48:19;3.65;;;1.60;;
32613;SDS011;19031;51.400;6.770;2024-03-02T06:50:48;7.70;;;1.80;;
32613;SDS011;19031;51.400;6.770;2024-03-02T06:53:14;4.63;;;1.67;;
32613;SDS011;19031;51.400;6.770;2024-03-02T06:55:42;3.40;;;1.30;;
32613;SDS011;19031;51.400;6.770;2024-03-02T06:58:09;2.58;;;1.08;;
32613;SDS011;19031;51.400;6.770;2024-03-02T07:00:36;3.35;;;1.70;;
32613;SDS011;19031;51.400;6.770;2024-03-02T07:03:01;1.95;;;1.10;;
32613;SDS011;19031;51.400;6.770;2024-03-02T07:05:27;3.25;;;1.55;;
32613;SDS011;19031;51.400;6.770;2024-03-02T07:07:53;2.47;;;1.23;;
32613;SDS011;19031;51.400;6.770;2024-03-02T07:10:18;3.90;;;1.35;;
32613;SDS011;19031;51.400;6.770;2024-03-02T07:12:44;5.40;;;1.90;;
32613;SDS011;19031;51.400;6.770;2024-03-02T07:15:09;2.42;;;1.40;;
32613;SDS011;19031;51.400;6.770;2024-03-02T07:18:08;3.03;;;1.60;;
32613;SDS011;19031;51.400;6.770;2024-03-02T07:20:33;4.57;;;1.35;;
32613;SDS011;19031;51.400;6.770;2024-03-02T07:22:59;5.18;;;1.50;;
32613;SDS011;19031;51.400;6.770;2024-03-02T07:25:24;6.40;;;1.80;;
32613;SDS011;19031;51.400;6.770;2024-03-02T07:27:50;4.07;;;1.80;;
32613;SDS011;19031;51.400;6.770;2024-03-02T07:30:16;4.00;;;2.22;;
32613;SDS011;19031;51.400;6.770;2024-03-02T07:32:41;4.70;;;1.77;;
32613;SDS011;19031;51.400;6.770;2024-03-02T07:35:10;2.50;;;1.52;;
32613;SDS011;19031;51.400;6.770;2024-03-02T07:37:39;4.15;;;1.45;;
32613;SDS011;19031;51.400;6.770;2024-03-02T07:40:06;3.58;;;1.50;;
32613;SDS011;19031;51.400;6.770;2024-03-02T07:42:36;8.13;;;2.17;;
32613;SDS011;19031;51.400;6.770;2024-03-02T07:45:03;3.92;;;2.05;;
32613;SDS011;19031;51.400;6.770;2024-03-02T07:47:29;3.95;;;1.95;;
32613;SDS011;19031;51.400;6.770;2024-03-02T07:49:54;6.03;;;1.80;;
32613;SDS011;19031;51.400;6.770;2024-03-02T07:52:20;7.40;;;1.73;;
32613;SDS011;19031;51.400;6.770;2024-03-02T07:54:45;3.88;;;1.40;;
32613;SDS011;19031;51.400;6.770;2024-03-02T07:57:11;4.50;;;1.75;;
32613;SDS011;19031;51.400;6.770;2024-03-02T07:59:36;3.63;;;1.75;;
32613;SDS011;19031;51.400;6.770;2024-03-02T08:02:02;4.30;;;1.83;;
32613;SDS011;19031;51.400;6.770;2024-03-02T08:04:28;5.00;;;2.00;;
32613;SDS011;19031;51.400;6.770;2024-03-02T08:06:54;3.53;;;1.65;;
32613;SDS011;19031;51.400;6.770;2024-03-02T08:09:19;3.72;;;1.50;;
32613;SDS011;19031;51.400;6.770;2024-03-02T08:11:45;5.10;;;1.58;;
32613;SDS011;19031;51.400;6.770;2024-03-02T08:14:10;2.85;;;1.40;;
32613;SDS011;19031;51.400;6.770;2024-03-02T08:16:36;4.40;;;1.60;;
32613;SDS011;19031;51.400;6.770;2024-03-02T08:19:01;4.43;;;2.13;;
32613;SDS011;19031;51.400;6.770;2024-03-02T08:21:28;5.97;;;2.20;;
32613;SDS011;19031;51.400;6.770;2024-03-02T08:23:57;3.70;;;2.30;;
32613;SDS011;19031;51.400;6.770;2024-03-02T08:26:23;4.10;;;1.92;;
32613;SDS011;19031;51.400;6.770;2024-03-02T08:28:49;6.28;;;2.08;;
32613;SDS011;19031;51.400;6.770;2024-03-02T08:31:14;5.55;;;2.17;;
32613;SDS011;19031;51.400;6.770;2024-03-02T08:33:40;3.95;;;1.83;;
32613;SDS011;19031;51.400;6.770;2024-03-02T08:36:05;3.85;;;1.92;;
32613;SDS011;19031;51.400;6.770;2024-03-02T08:38:31;5.30;;;2.35;;
32613;SDS011;19031;51.400;6.770;2024-03-02T08:40:57;4.63;;;2.33;;
32613;SDS011;19031;51.400;6.770;2024-03-02T08:43:23;3.90;;;1.95;;
32613;SDS011;19031;51.400;6.770;2024-03-02T08:45:49;2.72;;;1.35;;
32613;SDS011;19031;51.400;6.770;2024-03-02T08:48:16;4.22;;;1.40;;
32613;SDS011;19031;51.400;6.770;2024-03-02T08:50:41;3.88;;;1.33;;
32613;SDS011;19031;51.400;6.770;2024-03-02T08:53:07;3.03;;;1.63;;
32613;SDS011;19031;51.400;6.770;2024-03-02T08:55:32;2.70;;;1.52;;
32613;SDS011;19031;51.400;6.770;2024-03-02T08:57:58;5.53;;;1.95;;
32613;SDS011;19031;51.400;6.770;2024-03-02T09:00:23;3.60;;;1.90;;
32613;SDS011;19031;51.400;6.770;2024-03-02T09:02:50;4.88;;;1.67;;
32613;SDS011;19031;51.400;6.770;2024-03-02T09:05:15;3.20;;;1.23;;
32613;SDS011;19031;51.400;6.770;2024-03-02T09:07:41;5.80;;;2.58;;
32613;SDS011;19031;51.400;6.770;2024-03-02T09:10:07;2.72;;;1.88;;
32613;SDS011;19031;51.400;6.770;2024-03-02T09:12:33;2.67;;;1.52;;
32613;SDS011;19031;51.400;6.770;2024-03-02T09:15:02;3.25;;;1.50;;
32613;SDS011;19031;51.400;6.770;2024-03-02T09:17:28;2.70;;;1.40;;
32613;SDS011;19031;51.400;6.770;2024-03-02T09:19:54;3.30;;;1.27;;
32613;SDS011;19031;51.400;6.770;2024-03-02T09:22:20;4.40;;;1.50;;
32613;SDS011;19031;51.400;6.770;2024-03-02T09:24:46;4.50;;;1.60;;
32613;SDS011;19031;51.400;6.770;2024-03-02T09:27:11;3.83;;;1.65;;
32613;SDS011;19031;51.400;6.770;2024-03-02T09:29:37;3.22;;;1.60;;
32613;SDS011;19031;51.400;6.770;2024-03-02T09:32:03;2.25;;;1.40;;
32613;SDS011;19031;51.400;6.770;2024-03-02T09:34:33;4.03;;;1.45;;
32613;SDS011;19031;51.400;6.770;2024-03-02T09:36:59;2.13;;;1.10;;
32613;SDS011;19031;51.400;6.770;2024-03-02T09:39:24;2.88;;;1.30;;
32613;SDS011;19031;51.400;6.770;2024-03-02T09:41:50;2.88;;;0.85;;
32613;SDS011;19031;51.400;6.770;2024-03-02T09:44:16;7.30;;;1.13;;
32613;SDS011;19031;51.400;6.770;2024-03-02T09:46:42;2.42;;;1.10;;
32613;SDS011;19031;51.400;6.770;2024-03-02T09:49:09;5.03;;;1.20;;
32613;SDS011;19031;51.400;6.770;2024-03-02T09:51:36;2.83;;;1.20;;
32613;SDS011;19031;51.400;6.770;2024-03-02T09:54:02;2.67;;;1.05;;
32613;SDS011;19031;51.400;6.770;2024-03-02T09:56:28;2.05;;;0.73;;
32613;SDS011;19031;51.400;6.770;2024-03-02T09:58:53;2.38;;;0.77;;
32613;SDS011;19031;51.400;6.770;2024-03-02T10:01:19;1.58;;;0.73;;
32613;SDS011;19031;51.400;6.770;2024-03-02T10:03:45;4.13;;;0.85;;
32613;SDS011;19031;51.400;6.770;2024-03-02T10:06:21;2.75;;;1.00;;
32613;SDS011;19031;51.400;6.770;2024-03-02T10:08:48;1.42;;;0.70;;
32613;SDS011;19031;51.400;6.770;2024-03-02T10:11:25;4.28;;;1.05;;
32613;SDS011;19031;51.400;6.770;2024-03-02T10:13:51;3.60;;;0.90;;
32613;SDS011;19031;51.400;6.770;2024-03-02T10:16:16;1.33;;;0.68;;
32613;SDS011;19031;51.400;6.770;2024-03-02T10:18:42;2.58;;;0.73;;
32613;SDS011;19031;51.400;6.770;2024-03-02T10:21:14;3.78;;;0.90;;
32613;SDS011;19031;51.400;6.770;2024-03-02T10:23:40;2.90;;;0.80;;
32613;SDS011;19031;51.400;6.770;2024-03-02T10:26:39;3.10;;;0.75;;
32613;SDS011;19031;51.400;6.770;2024-03-02T10:28:57;1.50;;;0.70;;
32613;SDS011;19031;51.400;6.770;2024-03-02T10:31:24;2.20;;;0.70;;
32613;SDS011;19031;51.400;6.770;2024-03-02T10:33:53;5.03;;;0.73;;
32613;SDS011;19031;51.400;6.770;2024-03-02T10:36:20;3.35;;;1.02;;
32613;SDS011;19031;51.400;6.770;2024-03-02T10:38:46;1.50;;;0.68;;
32613;SDS011;19031;51.400;6.770;2024-03-02T10:41:16;3.20;;;1.00;;
32613;SDS011;19031;51.400;6.770;2024-03-02T10:43:43;1.83;;;0.75;;
32613;SDS011;19031;51.400;6.770;2024-03-02T10:46:10;1.77;;;0.90;;
32613;SDS011;19031;51.400;6.770;2024-03-02T10:48:38;2.97;;;0.75;;
32613;SDS011;19031;51.400;6.770;2024-03-02T10:51:06;1.45;;;0.60;;
32613;SDS011;19031;51.400;6.770;2024-03-02T10:53:31;6.43;;;0.85;;
32613;SDS011;19031;51.400;6.770;2024-03-02T10:55:57;2.47;;;0.70;;
32613;SDS011;19031;51.400;6.770;2024-03-02T10:58:31;1.63;;;0.52;;
32613;SDS011;19031;51.400;6.770;2024-03-02T11:01:03;2.92;;;0.82;;
32613;SDS011;19031;51.400;6.770;2024-03-02T11:03:31;1.35;;;0.70;;
32613;SDS011;19031;51.400;6.770;2024-03-02T11:06:00;1.58;;;0.50;;
32613;SDS011;19031;51.400;6.770;2024-03-02T11:08:28;2.35;;;0.70;;
32613;SDS011;19031;51.400;6.770;2024-03-02T11:10:57;2.88;;;0.77;;
32613;SDS011;19031;51.400;6.770;2024-03-02T11:13:32;2.53;;;0.68;;
32613;SDS011;19031;51.400;6.770;2024-03-02T11:15:59;4.38;;;0.85;;
32613;SDS011;19031;51.400;6.770;2024-03-02T11:18:31;4.82;;;0.95;;
32613;SDS011;19031;51.400;6.770;2024-03-02T11:20:58;0.95;;;0.60;;
32613;SDS011;19031;51.400;6.770;2024-03-02T11:23:33;2.30;;;0.80;;
32613;SDS011;19031;51.400;6.770;2024-03-02T11:26:19;2.22;;;0.73;;
32613;SDS011;19031;51.400;6.770;2024-03-02T11:28:45;3.25;;;0.90;;
32613;SDS011;19031;51.400;6.770;2024-03-02T11:31:11;2.08;;;0.77;;
32613;SDS011;19031;51.400;6.770;2024-03-02T11:33:36;1.67;;;0.80;;
32613;SDS011;19031;51.400;6.770;2024-03-02T11:36:02;2.67;;;0.90;;
32613;SDS011;19031;51.400;6.770;2024-03-02T11:38:29;3.25;;;1.23;;
32613;SDS011;19031;51.400;6.770;2024-03-02T11:40:57;8.63;;;2.20;;
32613;SDS011;19031;51.400;6.770;2024-03-02T11:43:25;1.23;;;0.77;;
32613;SDS011;19031;51.400;6.770;2024-03-02T11:45:59;2.10;;;0.70;;
32613;SDS011;19031;51.400;6.770;2024-03-02T11:48:25;2.15;;;1.02;;
32613;SDS011;19031;51.400;6.770;2024-03-02T11:50:51;1.10;;;0.80;;
32613;SDS011;19031;51.400;6.770;2024-03-02T11:53:18;3.50;;;1.00;;
32613;SDS011;19031;51.400;6.770;2024-03-02T11:55:45;2.17;;;0.80;;
32613;SDS011;19031;51.400;6.770;2024-03-02T11:58:14;3.42;;;1.10;;
32613;SDS011;19031;51.400;6.770;2024-03-02T12:00:45;3.30;;;1.15;;
32613;SDS011;19031;51.400;6.770;2024-03-02T12:03:13;4.30;;;1.10;;
32613;SDS011;19031;51.400;6.770;2024-03-02T12:05:40;3.42;;;0.80;;
32613;SDS011;19031;51.400;6.770;2024-03-02T12:08:07;1.33;;;0.70;;
32613;SDS011;19031;51.400;6.770;2024-03-02T12:10:33;2.08;;;0.95;;
32613;SDS011;19031;51.400;6.770;2024-03-02T12:13:04;2.17;;;0.93;;
32613;SDS011;19031;51.400;6.770;2024-03-02T12:15:38;3.03;;;0.95;;
32613;SDS011;19031;51.400;6.770;2024-03-02T12:18:04;3.38;;;1.08;;
32613;SDS011;19031;51.400;6.770;2024-03-02T12:20:31;4.88;;;1.10;;
32613;SDS011;19031;51.400;6.770;2024-03-02T12:22:59;4.25;;;1.05;;
32613;SDS011;19031;51.400;6.770;2024-03-02T12:25:26;3.75;;;0.90;;
32613;SDS011;19031;51.400;6.770;2024-03-02T12:27:56;6.07;;;1.13;;
32613;SDS011;19031;51.400;6.770;2024-03-02T12:30:23;11.23;;;1.80;;
32613;SDS011;19031;51.400;6.770;2024-03-02T12:32:49;7.70;;;1.13;;
32613;SDS011;19031;51.400;6.770;2024-03-02T12:35:15;1.98;;;0.70;;
32613;SDS011;19031;51.400;6.770;2024-03-02T12:37:47;3.97;;;1.05;;
32613;SDS011;19031;51.400;6.770;2024-03-02T12:40:14;1.70;;;0.90;;
32613;SDS011;19031;51.400;6.770;2024-03-02T12:42:42;3.67;;;1.08;;
32613;SDS011;19031;51.400;6.770;2024-03-02T12:45:08;3.13;;;0.95;;
32613;SDS011;19031;51.400;6.770;2024-03-02T12:47:35;2.97;;;0.90;;
32613;SDS011;19031;51.400;6.770;2024-03-02T12:50:01;3.45;;;0.95;;
32613;SDS011;19031;51.400;6.770;2024-03-02T12:52:28;4.20;;;1.00;;
32613;SDS011;19031;51.400;6.770;2024-03-02T12:54:54;2.05;;;0.98;;
32613;SDS011;19031;51.400;6.770;2024-03-02T12:57:26;1.50;;;0.88;;
32613;SDS011;19031;51.400;6.770;2024-03-02T12:59:57;3.08;;;0.90;;
32613;SDS011;19031;51.400;6.770;2024-03-02T13:02:33;2.42;;;0.85;;
32613;SDS011;19031;51.400;6.770;2024-03-02T13:05:00;1.65;;;0.98;;
32613;SDS011;19031;51.400;6.770;2024-03-02T13:07:26;2.08;;;0.82;;
32613;SDS011;19031;51.400;6.770;2024-03-02T13:09:52;3.10;;;1.10;;
32613;SDS011;19031;51.400;6.770;2024-03-02T13:12:20;4.78;;;1.00;;
32613;SDS011;19031;51.400;6.770;2024-03-02T13:14:49;4.07;;;0.85;;
32613;SDS011;19031;51.400;6.770;2024-03-02T13:17:19;2.25;;;1.00;;
32613;SDS011;19031;51.400;6.770;2024-03-02T13:19:57;3.78;;;0.77;;
32613;SDS011;19031;51.400;6.770;2024-03-02T13:22:24;3.13;;;0.70;;
32613;SDS011;19031;51.400;6.770;2024-03-02T13:24:50;1.60;;;0.85;;
32613;SDS011;19031;51.400;6.770;2024-03-02T13:27:17;3.05;;;0.70;;
32613;SDS011;19031;51.400;6.770;2024-03-02T13:29:46;1.60;;;0.60;;
32613;SDS011;19031;51.400;6.770;2024-03-02T13:32:13;2.40;;;0.80;;
32613;SDS011;19031;51.400;6.770;2024-03-02T13:34:39;2.40;;;0.73;;
32613;SDS011;19031;51.400;6.770;2024-03-02T13:37:05;0.88;;;0.50;;
32613;SDS011;19031;51.400;6.770;2024-03-02T13:39:31;1.00;;;0.60;;
32613;SDS011;19031;51.400;6.770;2024-03-02T13:41:58;1.80;;;0.60;;
32613;SDS011;19031;51.400;6.770;2024-03-02T13:44:30;1.17;;;0.70;;
32613;SDS011;19031;51.400;6.770;2024-03-02T13:46:56;4.07;;;1.02;;
32613;SDS011;19031;51.400;6.770;2024-03-02T13:49:23;1.00;;;0.50;;
32613;SDS011;19031;51.400;6.770;2024-03-02T13:51:48;2.58;;;0.60;;
32613;SDS011;19031;51.400;6.770;2024-03-02T13:54:14;1.50;;;0.70;;
32613;SDS011;19031;51.400;6.770;2024-03-02T13:56:40;1.42;;;0.90;;
32613;SDS011;19031;51.400;6.770;2024-03-02T13:59:06;3.05;;;0.73;;
32613;SDS011;19031;51.400;6.770;2024-03-02T14:01:32;4.25;;;0.80;;
32613;SDS011;19031;51.400;6.770;2024-03-02T14:03:58;1.90;;;0.80;;
32613;SDS011;19031;51.400;6.770;2024-03-02T14:06:24;1.02;;;0.75;;
32613;SDS011;19031;51.400;6.770;2024-03-02T14:08:51;1.50;;;0.80;;
32613;SDS011;19031;51.400;6.770;2024-03-02T14:11:17;3.33;;;0.85;;
32613;SDS011;19031;51.400;6.770;2024-03-02T14:13:43;3.10;;;0.70;;
32613;SDS011;19031;51.400;6.770;2024-03-02T14:16:13;3.83;;;0.85;;
32613;SDS011;19031;51.400;6.770;2024-03-02T14:18:38;1.48;;;0.80;;
32613;SDS011;19031;51.400;6.770;2024-03-02T14:21:04;0.95;;;0.50;;
32613;SDS011;19031;51.400;6.770;2024-03-02T14:23:30;2.97;;;0.70;;
32613;SDS011;19031;51.400;6.770;2024-03-02T14:25:55;2.05;;;0.60;;
32613;SDS011;19031;51.400;6.770;2024-03-02T14:28:22;3.22;;;0.90;;
32613;SDS011;19031;51.400;6.770;2024-03-02T14:30:47;1.50;;;0.88;;
32613;SDS011;19031;51.400;6.770;2024-03-02T14:33:13;0.70;;;0.60;;
32613;SDS011;19031;51.400;6.770;2024-03-02T14:35:38;3.88;;;0.60;;
32613;SDS011;19031;51.400;6.770;2024-03-02T14:38:04;1.15;;;0.70;;
32613;SDS011;19031;51.400;6.770;2024-03-02T14:40:30;1.27;;;0.57;;
32613;SDS011;19031;51.400;6.770;2024-03-02T14:42:55;5.60;;;0.80;;
32613;SDS011;19031;51.400;6.770;2024-03-02T14:45:21;1.35;;;0.60;;
32613;SDS011;19031;51.400;6.770;2024-03-02T14:47:47;1.48;;;0.73;;
32613;SDS011;19031;51.400;6.770;2024-03-02T14:50:12;1.73;;;0.68;;
32613;SDS011;19031;51.400;6.770;2024-03-02T14:52:40;1.77;;;0.90;;
32613;SDS011;19031;51.400;6.770;2024-03-02T14:55:06;3.53;;;0.90;;